AAL414 KSAN-KPHX
Flight info
| Callsign | AAL414 |
|---|---|
| Flight time | 0h 51m |
| Altitude | 35000 |
| Route | ZZOOO4 HOGGZ HYDRR1 |
| Aircraft | A20N/M-SDE2E3FGHIRWXY/LB1 |
Departure
| Time | 2026-05-05 14:03 |
|---|---|
| Airport | San Diego International Airport (KSAN) |
Arrival
| Time | 2026-05-05 14:54 |
|---|---|
| Airport | Phoenix Sky Harbor International Airport (KPHX) |
| Time | Latitude | Longitude | Altitude | Speed | Heading |
|---|---|---|---|---|---|
| 2026-05-05 13:36 | 32.73288 | -117.19548 | 22 ft | 0 kts | 276° |
| 2026-05-05 13:52 | 32.73287 | -117.19532 | 23 ft | 3 kts | 276° |
| 2026-05-05 13:52 | 32.73283 | -117.19501 | 23 ft | 3 kts | 295° |
| 2026-05-05 13:52 | 32.73264 | -117.19484 | 23 ft | 3 kts | 348° |
| 2026-05-05 13:52 | 32.73247 | -117.19486 | 23 ft | 0 kts | 20° |
| 2026-05-05 13:55 | 32.73248 | -117.19485 | 23 ft | 0 kts | 20° |
| 2026-05-05 13:56 | 32.73251 | -117.19484 | 23 ft | 0 kts | 20° |
| 2026-05-05 13:56 | 32.73255 | -117.19482 | 23 ft | 1 kts | 20° |
| 2026-05-05 13:56 | 32.73272 | -117.19475 | 23 ft | 3 kts | 20° |
| 2026-05-05 13:57 | 32.73298 | -117.19463 | 23 ft | 4 kts | 21° |
| 2026-05-05 13:57 | 32.73332 | -117.19441 | 23 ft | 6 kts | 43° |
| 2026-05-05 13:57 | 32.73350 | -117.19389 | 23 ft | 7 kts | 89° |
| 2026-05-05 13:57 | 32.73338 | -117.19320 | 23 ft | 9 kts | 105° |
| 2026-05-05 13:58 | 32.73319 | -117.19237 | 22 ft | 11 kts | 106° |
| 2026-05-05 13:58 | 32.73295 | -117.19142 | 22 ft | 12 kts | 106° |
| 2026-05-05 13:58 | 32.73269 | -117.19035 | 21 ft | 14 kts | 107° |
| 2026-05-05 13:58 | 32.73239 | -117.18919 | 21 ft | 15 kts | 107° |
| 2026-05-05 13:59 | 32.73177 | -117.18656 | 20 ft | 17 kts | 105° |
| 2026-05-05 13:59 | 32.73145 | -117.18516 | 20 ft | 17 kts | 105° |
| 2026-05-05 14:00 | 32.73077 | -117.18230 | 20 ft | 18 kts | 106° |
| 2026-05-05 14:00 | 32.73041 | -117.18087 | 20 ft | 18 kts | 106° |
| 2026-05-05 14:00 | 32.73006 | -117.17944 | 21 ft | 17 kts | 106° |
| 2026-05-05 14:00 | 32.72974 | -117.17810 | 23 ft | 16 kts | 106° |
| 2026-05-05 14:01 | 32.72951 | -117.17699 | 25 ft | 9 kts | 87° |
| 2026-05-05 14:01 | 32.72953 | -117.17682 | 25 ft | 0 kts | 78° |
| 2026-05-05 14:01 | 32.72957 | -117.17666 | 25 ft | 5 kts | 70° |
| 2026-05-05 14:02 | 32.72998 | -117.17632 | 26 ft | 8 kts | 358° |
| 2026-05-05 14:02 | 32.73041 | -117.17680 | 26 ft | 9 kts | 293° |
| 2026-05-05 14:02 | 32.73068 | -117.17774 | 24 ft | 18 kts | 287° |
| 2026-05-05 14:02 | 32.73173 | -117.18187 | 20 ft | 91 kts | 284° |
| 2026-05-05 14:03 | 32.73415 | -117.19179 | 27 ft | 157 kts | 287° |
| 2026-05-05 14:03 | 32.73674 | -117.20554 | 423 ft | 178 kts | 283° |
| 2026-05-05 14:03 | 32.73976 | -117.21927 | 1293 ft | 174 kts | 287° |
| 2026-05-05 14:03 | 32.74317 | -117.23271 | 2078 ft | 173 kts | 288° |
| 2026-05-05 14:04 | 32.74680 | -117.24689 | 2557 ft | 189 kts | 287° |
| 2026-05-05 14:04 | 32.75075 | -117.26248 | 2983 ft | 209 kts | 287° |
| 2026-05-05 14:04 | 32.75508 | -117.27971 | 3428 ft | 229 kts | 287° |
| 2026-05-05 14:04 | 32.75972 | -117.29825 | 3995 ft | 242 kts | 287° |
| 2026-05-05 14:05 | 32.76438 | -117.31760 | 4745 ft | 246 kts | 283° |
| 2026-05-05 14:05 | 32.76401 | -117.33768 | 5489 ft | 250 kts | 252° |
| 2026-05-05 14:05 | 32.75473 | -117.35494 | 6191 ft | 256 kts | 223° |
| 2026-05-05 14:05 | 32.73882 | -117.36478 | 6853 ft | 265 kts | 192° |
| 2026-05-05 14:06 | 32.72060 | -117.36365 | 7494 ft | 269 kts | 161° |
| 2026-05-05 14:06 | 32.70518 | -117.35137 | 8119 ft | 275 kts | 131° |
| 2026-05-05 14:06 | 32.69304 | -117.33364 | 8807 ft | 277 kts | 128° |
| 2026-05-05 14:06 | 32.68094 | -117.31587 | 9418 ft | 281 kts | 129° |
| 2026-05-05 14:07 | 32.66857 | -117.29813 | 10007 ft | 284 kts | 129° |
| 2026-05-05 14:07 | 32.65589 | -117.28020 | 10567 ft | 286 kts | 130° |
| 2026-05-05 14:07 | 32.64300 | -117.26215 | 11117 ft | 288 kts | 128° |
| 2026-05-05 14:07 | 32.63256 | -117.24169 | 11610 ft | 291 kts | 109° |
| 2026-05-05 14:08 | 32.62783 | -117.21829 | 12007 ft | 297 kts | 95° |
| 2026-05-05 14:08 | 32.62571 | -117.19335 | 12303 ft | 312 kts | 92° |
| 2026-05-05 14:08 | 32.62383 | -117.16717 | 12596 ft | 328 kts | 92° |
| 2026-05-05 14:08 | 32.62168 | -117.13962 | 12897 ft | 345 kts | 92° |
| 2026-05-05 14:09 | 32.62136 | -117.11063 | 13188 ft | 356 kts | 82° |
| 2026-05-05 14:09 | 32.62606 | -117.08173 | 13564 ft | 364 kts | 70° |
| 2026-05-05 14:09 | 32.63472 | -117.05353 | 14176 ft | 366 kts | 65° |
| 2026-05-05 14:09 | 32.64411 | -117.02556 | 14777 ft | 367 kts | 65° |
| 2026-05-05 14:10 | 32.65365 | -116.99732 | 15311 ft | 373 kts | 65° |
| 2026-05-05 14:10 | 32.66177 | -116.96819 | 15860 ft | 379 kts | 72° |
| 2026-05-05 14:10 | 32.66666 | -116.93707 | 16375 ft | 384 kts | 81° |
| 2026-05-05 14:10 | 32.66832 | -116.90536 | 16874 ft | 391 kts | 85° |
| 2026-05-05 14:11 | 32.66891 | -116.87305 | 17409 ft | 394 kts | 86° |
| 2026-05-05 14:11 | 32.66938 | -116.84064 | 17910 ft | 399 kts | 86° |
| 2026-05-05 14:11 | 32.66997 | -116.80748 | 18422 ft | 403 kts | 86° |
| 2026-05-05 14:11 | 32.67066 | -116.77433 | 18943 ft | 407 kts | 85° |
| 2026-05-05 14:12 | 32.67097 | -116.74068 | 19491 ft | 411 kts | 88° |
| 2026-05-05 14:12 | 32.67056 | -116.70674 | 19993 ft | 417 kts | 88° |
| 2026-05-05 14:12 | 32.67001 | -116.67207 | 20463 ft | 422 kts | 88° |
| 2026-05-05 14:12 | 32.66943 | -116.63742 | 20878 ft | 426 kts | 88° |
| 2026-05-05 14:13 | 32.66884 | -116.60217 | 21290 ft | 428 kts | 88° |
| 2026-05-05 14:13 | 32.66824 | -116.56694 | 21697 ft | 432 kts | 88° |
| 2026-05-05 14:13 | 32.66763 | -116.53130 | 22169 ft | 436 kts | 88° |
| 2026-05-05 14:13 | 32.66700 | -116.49509 | 22674 ft | 439 kts | 88° |
| 2026-05-05 14:14 | 32.66639 | -116.45888 | 23148 ft | 443 kts | 87° |
| 2026-05-05 14:14 | 32.66682 | -116.42255 | 23608 ft | 446 kts | 84° |
| 2026-05-05 14:14 | 32.66912 | -116.38593 | 24068 ft | 448 kts | 80° |
| 2026-05-05 14:14 | 32.67242 | -116.34916 | 24514 ft | 452 kts | 80° |
| 2026-05-05 14:15 | 32.67595 | -116.31165 | 24941 ft | 456 kts | 80° |
| 2026-05-05 14:15 | 32.67944 | -116.27447 | 25353 ft | 460 kts | 80° |
| 2026-05-05 14:15 | 32.68292 | -116.23674 | 25763 ft | 464 kts | 80° |
| 2026-05-05 14:15 | 32.68641 | -116.19827 | 26170 ft | 468 kts | 80° |
| 2026-05-05 14:16 | 32.68986 | -116.15991 | 26564 ft | 472 kts | 80° |
| 2026-05-05 14:16 | 32.69329 | -116.12141 | 26945 ft | 476 kts | 81° |
| 2026-05-05 14:16 | 32.69677 | -116.08227 | 27317 ft | 479 kts | 81° |
| 2026-05-05 14:16 | 32.70023 | -116.04311 | 27669 ft | 483 kts | 81° |
| 2026-05-05 14:17 | 32.70381 | -116.00339 | 28013 ft | 486 kts | 80° |
| 2026-05-05 14:17 | 32.70752 | -115.96347 | 28420 ft | 488 kts | 80° |
| 2026-05-05 14:17 | 32.71123 | -115.92365 | 28887 ft | 487 kts | 80° |
| 2026-05-05 14:17 | 32.71491 | -115.88397 | 29364 ft | 486 kts | 80° |
| 2026-05-05 14:18 | 32.71862 | -115.84383 | 29827 ft | 486 kts | 80° |
| 2026-05-05 14:18 | 32.72226 | -115.80411 | 30260 ft | 486 kts | 80° |
| 2026-05-05 14:18 | 32.72587 | -115.76459 | 30676 ft | 487 kts | 81° |
| 2026-05-05 14:18 | 32.72949 | -115.72486 | 31098 ft | 487 kts | 81° |
| 2026-05-05 14:19 | 32.73313 | -115.68465 | 31498 ft | 488 kts | 81° |
| 2026-05-05 14:19 | 32.73675 | -115.64518 | 31871 ft | 489 kts | 81° |
| 2026-05-05 14:19 | 32.74036 | -115.60468 | 32233 ft | 490 kts | 82° |
| 2026-05-05 14:19 | 32.74388 | -115.56469 | 32546 ft | 491 kts | 82° |
| 2026-05-05 14:20 | 32.74736 | -115.52454 | 32849 ft | 493 kts | 82° |
| 2026-05-05 14:20 | 32.74968 | -115.48363 | 33151 ft | 496 kts | 85° |
| 2026-05-05 14:20 | 32.75090 | -115.44317 | 33409 ft | 499 kts | 86° |
| 2026-05-05 14:20 | 32.75185 | -115.40160 | 33640 ft | 502 kts | 87° |
| 2026-05-05 14:21 | 32.75268 | -115.36060 | 33865 ft | 505 kts | 87° |
| 2026-05-05 14:21 | 32.75355 | -115.31895 | 34096 ft | 507 kts | 88° |
| 2026-05-05 14:21 | 32.75449 | -115.27676 | 34301 ft | 510 kts | 87° |
| 2026-05-05 14:21 | 32.75542 | -115.23478 | 34491 ft | 512 kts | 88° |
| 2026-05-05 14:22 | 32.75637 | -115.19270 | 34702 ft | 513 kts | 88° |
| 2026-05-05 14:22 | 32.75729 | -115.15045 | 34894 ft | 515 kts | 88° |
| 2026-05-05 14:22 | 32.75914 | -115.06557 | 34953 ft | 517 kts | 88° |
| 2026-05-05 14:23 | 32.76096 | -114.98013 | 34968 ft | 517 kts | 88° |
| 2026-05-05 14:23 | 32.76265 | -114.89552 | 34926 ft | 517 kts | 88° |
| 2026-05-05 14:24 | 32.76437 | -114.81011 | 34909 ft | 517 kts | 89° |
| 2026-05-05 14:24 | 32.76593 | -114.72520 | 34910 ft | 517 kts | 89° |
| 2026-05-05 14:25 | 32.76741 | -114.63988 | 34909 ft | 518 kts | 89° |
| 2026-05-05 14:25 | 32.76881 | -114.55479 | 34907 ft | 518 kts | 89° |
| 2026-05-05 14:26 | 32.77000 | -114.46922 | 34905 ft | 518 kts | 89° |
| 2026-05-05 14:26 | 32.77109 | -114.38410 | 34908 ft | 518 kts | 89° |
| 2026-05-05 14:27 | 32.77161 | -114.34130 | 34795 ft | 519 kts | 89° |
| 2026-05-05 14:27 | 32.77220 | -114.29868 | 34581 ft | 517 kts | 89° |
| 2026-05-05 14:27 | 32.77277 | -114.25641 | 34356 ft | 515 kts | 89° |
| 2026-05-05 14:27 | 32.77328 | -114.21415 | 34116 ft | 513 kts | 89° |
| 2026-05-05 14:28 | 32.77376 | -114.17217 | 33863 ft | 511 kts | 89° |
| 2026-05-05 14:28 | 32.77426 | -114.12972 | 33478 ft | 510 kts | 89° |
| 2026-05-05 14:28 | 32.77492 | -114.08789 | 32940 ft | 510 kts | 87° |
| 2026-05-05 14:28 | 32.77734 | -114.04587 | 32309 ft | 511 kts | 83° |
| 2026-05-05 14:29 | 32.78155 | -114.00425 | 31659 ft | 513 kts | 81° |
| 2026-05-05 14:29 | 32.78632 | -113.96247 | 31002 ft | 515 kts | 81° |
| 2026-05-05 14:29 | 32.79125 | -113.91996 | 30280 ft | 517 kts | 81° |
| 2026-05-05 14:29 | 32.79597 | -113.87837 | 29573 ft | 517 kts | 81° |
| 2026-05-05 14:30 | 32.80065 | -113.83600 | 28920 ft | 515 kts | 81° |
| 2026-05-05 14:30 | 32.80526 | -113.79374 | 28247 ft | 514 kts | 81° |
| 2026-05-05 14:30 | 32.80975 | -113.75212 | 27603 ft | 510 kts | 81° |
| 2026-05-05 14:30 | 32.81568 | -113.71124 | 27127 ft | 497 kts | 71° |
| 2026-05-05 14:31 | 32.82861 | -113.67424 | 26731 ft | 479 kts | 55° |
| 2026-05-05 14:31 | 32.84796 | -113.64294 | 26286 ft | 462 kts | 43° |
| 2026-05-05 14:31 | 32.86908 | -113.61501 | 25873 ft | 453 kts | 41° |
| 2026-05-05 14:31 | 32.89024 | -113.58778 | 25481 ft | 446 kts | 41° |
| 2026-05-05 14:32 | 32.91121 | -113.56052 | 25108 ft | 438 kts | 42° |
| 2026-05-05 14:32 | 32.93136 | -113.53391 | 24710 ft | 432 kts | 43° |
| 2026-05-05 14:32 | 32.95109 | -113.50756 | 24274 ft | 427 kts | 43° |
| 2026-05-05 14:32 | 32.97067 | -113.48124 | 23830 ft | 423 kts | 43° |
| 2026-05-05 14:33 | 32.98998 | -113.45518 | 23381 ft | 419 kts | 43° |
| 2026-05-05 14:33 | 33.00905 | -113.42938 | 22931 ft | 415 kts | 43° |
| 2026-05-05 14:33 | 33.02816 | -113.40353 | 22473 ft | 412 kts | 44° |
| 2026-05-05 14:33 | 33.04694 | -113.37811 | 22019 ft | 408 kts | 44° |
| 2026-05-05 14:34 | 33.06549 | -113.35303 | 21707 ft | 402 kts | 44° |
| 2026-05-05 14:34 | 33.08412 | -113.32793 | 21664 ft | 404 kts | 44° |
| 2026-05-05 14:34 | 33.10265 | -113.30293 | 21634 ft | 404 kts | 44° |
| 2026-05-05 14:34 | 33.12139 | -113.27758 | 21615 ft | 404 kts | 44° |
| 2026-05-05 14:35 | 33.13989 | -113.25253 | 21569 ft | 404 kts | 45° |
| 2026-05-05 14:35 | 33.15826 | -113.22762 | 21260 ft | 401 kts | 45° |
| 2026-05-05 14:35 | 33.17673 | -113.20255 | 20863 ft | 399 kts | 45° |
| 2026-05-05 14:35 | 33.19491 | -113.17785 | 20443 ft | 396 kts | 45° |
| 2026-05-05 14:36 | 33.21292 | -113.15337 | 20006 ft | 394 kts | 45° |
| 2026-05-05 14:36 | 33.23100 | -113.12879 | 19557 ft | 391 kts | 45° |
| 2026-05-05 14:36 | 33.24879 | -113.10461 | 19149 ft | 386 kts | 45° |
| 2026-05-05 14:36 | 33.26498 | -113.08007 | 18943 ft | 377 kts | 56° |
| 2026-05-05 14:37 | 33.27457 | -113.05112 | 18822 ft | 373 kts | 76° |
| 2026-05-05 14:37 | 33.27698 | -113.02014 | 18812 ft | 377 kts | 86° |
| 2026-05-05 14:37 | 33.27744 | -112.98889 | 18762 ft | 377 kts | 88° |
| 2026-05-05 14:37 | 33.27771 | -112.95777 | 18385 ft | 378 kts | 88° |
| 2026-05-05 14:38 | 33.27813 | -112.92681 | 17975 ft | 374 kts | 87° |
| 2026-05-05 14:38 | 33.27874 | -112.89576 | 17565 ft | 372 kts | 87° |
| 2026-05-05 14:38 | 33.27945 | -112.86516 | 17180 ft | 368 kts | 86° |
| 2026-05-05 14:38 | 33.28019 | -112.83491 | 17001 ft | 357 kts | 86° |
| 2026-05-05 14:39 | 33.28187 | -112.80628 | 16929 ft | 344 kts | 82° |
| 2026-05-05 14:39 | 33.28448 | -112.77789 | 16926 ft | 346 kts | 82° |
| 2026-05-05 14:39 | 33.28727 | -112.74920 | 16801 ft | 348 kts | 82° |
| 2026-05-05 14:39 | 33.29002 | -112.72073 | 16430 ft | 347 kts | 82° |
| 2026-05-05 14:40 | 33.29277 | -112.69196 | 16050 ft | 345 kts | 82° |
| 2026-05-05 14:40 | 33.29544 | -112.66376 | 15676 ft | 343 kts | 82° |
| 2026-05-05 14:40 | 33.29804 | -112.63578 | 15297 ft | 340 kts | 82° |
| 2026-05-05 14:40 | 33.30064 | -112.60761 | 14920 ft | 338 kts | 82° |
| 2026-05-05 14:41 | 33.30320 | -112.57993 | 14559 ft | 336 kts | 83° |
| 2026-05-05 14:41 | 33.30574 | -112.55240 | 14204 ft | 333 kts | 83° |
| 2026-05-05 14:41 | 33.30830 | -112.52488 | 13851 ft | 330 kts | 83° |
| 2026-05-05 14:41 | 33.31079 | -112.49796 | 13504 ft | 327 kts | 83° |
| 2026-05-05 14:42 | 33.31325 | -112.47126 | 13157 ft | 325 kts | 83° |
| 2026-05-05 14:42 | 33.31571 | -112.44442 | 12814 ft | 321 kts | 83° |
| 2026-05-05 14:42 | 33.31812 | -112.41821 | 12477 ft | 318 kts | 83° |
| 2026-05-05 14:42 | 33.32051 | -112.39208 | 12143 ft | 316 kts | 84° |
| 2026-05-05 14:43 | 33.32289 | -112.36602 | 11812 ft | 313 kts | 84° |
| 2026-05-05 14:43 | 33.32524 | -112.34036 | 11487 ft | 310 kts | 84° |
| 2026-05-05 14:43 | 33.32757 | -112.31492 | 11170 ft | 306 kts | 84° |
| 2026-05-05 14:43 | 33.32986 | -112.28989 | 10857 ft | 304 kts | 85° |
| 2026-05-05 14:44 | 33.33212 | -112.26511 | 10540 ft | 302 kts | 85° |
| 2026-05-05 14:44 | 33.33437 | -112.24026 | 10220 ft | 299 kts | 85° |
| 2026-05-05 14:44 | 33.33659 | -112.21574 | 9887 ft | 297 kts | 85° |
| 2026-05-05 14:44 | 33.33878 | -112.19123 | 9545 ft | 295 kts | 85° |
| 2026-05-05 14:45 | 33.34094 | -112.16712 | 9355 ft | 286 kts | 84° |
| 2026-05-05 14:45 | 33.34301 | -112.14401 | 9270 ft | 274 kts | 84° |
| 2026-05-05 14:45 | 33.34499 | -112.12204 | 9196 ft | 261 kts | 84° |
| 2026-05-05 14:45 | 33.34685 | -112.10089 | 9120 ft | 254 kts | 85° |
| 2026-05-05 14:46 | 33.34753 | -112.07980 | 9067 ft | 254 kts | 90° |
| 2026-05-05 14:46 | 33.34734 | -112.05870 | 8826 ft | 256 kts | 91° |
| 2026-05-05 14:46 | 33.34700 | -112.03745 | 8507 ft | 255 kts | 91° |
| 2026-05-05 14:46 | 33.34668 | -112.01633 | 8203 ft | 255 kts | 90° |
| 2026-05-05 14:47 | 33.34639 | -111.99532 | 7969 ft | 250 kts | 90° |
| 2026-05-05 14:47 | 33.34612 | -111.97463 | 7707 ft | 247 kts | 90° |
| 2026-05-05 14:47 | 33.34585 | -111.95431 | 7413 ft | 245 kts | 90° |
| 2026-05-05 14:47 | 33.34561 | -111.93407 | 7126 ft | 242 kts | 89° |
| 2026-05-05 14:48 | 33.34582 | -111.91436 | 7062 ft | 236 kts | 88° |
| 2026-05-05 14:48 | 33.34624 | -111.89473 | 7055 ft | 237 kts | 88° |
| 2026-05-05 14:48 | 33.34672 | -111.87500 | 6977 ft | 233 kts | 88° |
| 2026-05-05 14:48 | 33.34716 | -111.85564 | 6657 ft | 234 kts | 86° |
| 2026-05-05 14:49 | 33.35080 | -111.83729 | 6371 ft | 229 kts | 55° |
| 2026-05-05 14:49 | 33.36275 | -111.82566 | 6052 ft | 220 kts | 17° |
| 2026-05-05 14:49 | 33.37758 | -111.82240 | 5647 ft | 214 kts | 6° |
| 2026-05-05 14:49 | 33.39208 | -111.82030 | 5311 ft | 206 kts | 8° |
| 2026-05-05 14:50 | 33.40581 | -111.81802 | 5086 ft | 192 kts | 3° |
| 2026-05-05 14:50 | 33.41836 | -111.82218 | 4723 ft | 188 kts | 325° |
| 2026-05-05 14:50 | 33.42569 | -111.83446 | 4419 ft | 184 kts | 294° |
| 2026-05-05 14:50 | 33.42818 | -111.84914 | 4055 ft | 179 kts | 279° |
| 2026-05-05 14:51 | 33.42883 | -111.86370 | 3712 ft | 172 kts | 274° |
| 2026-05-05 14:51 | 33.42893 | -111.87756 | 3385 ft | 163 kts | 272° |
| 2026-05-05 14:51 | 33.42887 | -111.89075 | 3034 ft | 158 kts | 272° |
| 2026-05-05 14:51 | 33.42883 | -111.90355 | 2698 ft | 150 kts | 272° |
| 2026-05-05 14:52 | 33.42881 | -111.91605 | 2496 ft | 150 kts | 272° |
| 2026-05-05 14:52 | 33.42881 | -111.92858 | 2299 ft | 150 kts | 271° |
| 2026-05-05 14:52 | 33.42882 | -111.94099 | 2102 ft | 150 kts | 271° |
| 2026-05-05 14:52 | 33.42882 | -111.95351 | 1904 ft | 152 kts | 271° |
| 2026-05-05 14:53 | 33.42881 | -111.96623 | 1706 ft | 154 kts | 271° |
| 2026-05-05 14:53 | 33.42882 | -111.97901 | 1507 ft | 156 kts | 272° |
| 2026-05-05 14:53 | 33.42882 | -111.99205 | 1305 ft | 158 kts | 272° |
| 2026-05-05 14:53 | 33.42882 | -112.00514 | 1128 ft | 153 kts | 272° |
| 2026-05-05 14:54 | 33.42891 | -112.01662 | 1125 ft | 113 kts | 269° |
| 2026-05-05 14:54 | 33.42893 | -112.02397 | 1122 ft | 64 kts | 264° |
| 2026-05-05 14:54 | 33.42893 | -112.02673 | 1120 ft | 12 kts | 296° |
| 2026-05-05 14:54 | 33.42979 | -112.02702 | 1120 ft | 13 kts | 359° |
| 2026-05-05 14:55 | 33.43077 | -112.02701 | 1120 ft | 14 kts | 2° |
| 2026-05-05 14:55 | 33.43178 | -112.02694 | 1120 ft | 14 kts | 1° |
| 2026-05-05 14:55 | 33.43273 | -112.02661 | 1120 ft | 14 kts | 50° |
| 2026-05-05 14:55 | 33.43288 | -112.02550 | 1122 ft | 13 kts | 88° |
| 2026-05-05 14:56 | 33.43290 | -112.02445 | 1123 ft | 12 kts | 89° |
| 2026-05-05 14:56 | 33.43291 | -112.02335 | 1123 ft | 13 kts | 89° |
| 2026-05-05 14:56 | 33.43291 | -112.02225 | 1122 ft | 13 kts | 90° |
| 2026-05-05 14:56 | 33.43290 | -112.02110 | 1122 ft | 13 kts | 90° |
| 2026-05-05 14:57 | 33.43291 | -112.01994 | 1122 ft | 14 kts | 90° |
| 2026-05-05 14:57 | 33.43289 | -112.01882 | 1124 ft | 12 kts | 91° |
| 2026-05-05 14:57 | 33.43289 | -112.01779 | 1125 ft | 12 kts | 89° |
| 2026-05-05 14:57 | 33.43290 | -112.01675 | 1125 ft | 12 kts | 89° |
| 2026-05-05 14:58 | 33.43289 | -112.01574 | 1127 ft | 11 kts | 90° |
| 2026-05-05 14:58 | 33.43289 | -112.01479 | 1128 ft | 11 kts | 89° |
| 2026-05-05 14:58 | 33.43289 | -112.01372 | 1128 ft | 13 kts | 90° |
| 2026-05-05 14:58 | 33.43289 | -112.01251 | 1130 ft | 14 kts | 90° |
| 2026-05-05 14:59 | 33.43289 | -112.01129 | 1131 ft | 15 kts | 90° |
| 2026-05-05 14:59 | 33.43289 | -112.00998 | 1131 ft | 16 kts | 89° |
| 2026-05-05 14:59 | 33.43288 | -112.00855 | 1133 ft | 16 kts | 91° |
| 2026-05-05 14:59 | 33.43288 | -112.00711 | 1131 ft | 18 kts | 89° |
| 2026-05-05 15:00 | 33.43291 | -112.00545 | 1130 ft | 20 kts | 88° |
| 2026-05-05 15:00 | 33.43292 | -112.00430 | 1130 ft | 21 kts | 91° |
| 2026-05-05 15:00 | 33.43290 | -112.00188 | 1129 ft | 21 kts | 88° |
| 2026-05-05 15:00 | 33.43292 | -112.00050 | 1129 ft | 10 kts | 88° |
| 2026-05-05 15:01 | 33.43300 | -111.99965 | 1129 ft | 7 kts | 64° |
| 2026-05-05 15:01 | 33.43339 | -111.99941 | 1129 ft | 3 kts | 3° |